createdAt,value
2023-04-16T00:00:46.894Z,188.28
2023-04-16T00:01:47.013Z,190.54
2023-04-16T00:02:47.184Z,192.01
2023-04-16T00:03:47.289Z,191.12
2023-04-16T00:04:47.076Z,190.75
2023-04-16T00:05:47.022Z,188.93
2023-04-16T00:06:47.024Z,192.02
2023-04-16T00:07:47.016Z,191.89
2023-04-16T00:08:47.014Z,189.05
2023-04-16T00:09:47.001Z,189.36
2023-04-16T00:10:47.001Z,188.92
2023-04-16T00:11:47.244Z,189.16
2023-04-16T00:12:46.992Z,190.15
2023-04-16T00:13:46.992Z,187.52
2023-04-16T00:14:47.061Z,188.33
2023-04-16T00:15:47.113Z,187.21
2023-04-16T00:16:47.203Z,186.17
2023-04-16T00:17:47.281Z,184.66
2023-04-16T00:18:47.320Z,186.66
2023-04-16T00:19:47.336Z,186.64
2023-04-16T00:20:47.391Z,185.76
2023-04-16T00:21:47.441Z,185.92
2023-04-16T00:22:47.500Z,187.66
2023-04-16T00:23:47.619Z,187.10
2023-04-16T00:24:47.634Z,187.51
2023-04-16T00:25:47.692Z,187.71
2023-04-16T00:26:47.760Z,186.22
2023-04-16T00:27:47.828Z,185.65
2023-04-16T00:28:47.900Z,184.52
2023-04-16T00:29:47.958Z,185.52
2023-04-16T00:30:48.075Z,184.85
2023-04-16T00:31:48.088Z,185.59
2023-04-16T00:32:48.229Z,183.39
2023-04-16T00:33:48.201Z,182.68
2023-04-16T00:34:48.245Z,182.65
2023-04-16T00:35:48.310Z,184.91
2023-04-16T00:36:48.358Z,184.51
2023-04-16T00:37:48.407Z,184.89
2023-04-16T00:38:48.458Z,182.53
2023-04-16T00:39:48.509Z,183.47
2023-04-16T00:40:48.548Z,183.08
2023-04-16T00:41:48.591Z,182.87
2023-04-16T00:42:48.594Z,182.74
2023-04-16T00:43:48.616Z,184.53
2023-04-16T00:44:48.663Z,184.94
2023-04-16T00:45:48.788Z,184.28
2023-04-16T00:46:48.795Z,182.88
2023-04-16T00:47:48.825Z,182.60
2023-04-16T00:48:48.835Z,183.01
2023-04-16T00:49:48.873Z,182.92
2023-04-16T00:50:48.897Z,183.05
2023-04-16T00:51:48.872Z,183.36
2023-04-16T00:52:48.878Z,183.91
2023-04-16T00:53:48.834Z,183.69
2023-04-16T00:54:48.846Z,183.03
2023-04-16T00:55:48.843Z,183.14
2023-04-16T00:56:48.822Z,182.58
2023-04-16T00:57:48.823Z,184.14
2023-04-16T00:58:48.776Z,183.09
2023-04-16T00:59:48.771Z,183.26
2023-04-16T01:00:48.758Z,183.42
2023-04-16T01:01:48.833Z,183.37
2023-04-16T01:02:48.836Z,182.17
2023-04-16T01:03:48.809Z,183.27
2023-04-16T01:04:48.731Z,183.86
2023-04-16T01:05:48.721Z,183.00
2023-04-16T01:06:48.749Z,184.41
2023-04-16T01:07:48.696Z,183.16
2023-04-16T01:08:48.695Z,183.36
2023-04-16T01:09:48.692Z,182.18
2023-04-16T01:10:48.718Z,184.05
2023-04-16T01:11:48.710Z,186.49
2023-04-16T01:12:48.740Z,186.70
2023-04-16T01:13:48.775Z,188.13
2023-04-16T01:14:48.815Z,187.25
2023-04-16T01:15:48.845Z,187.59
2023-04-16T01:16:48.891Z,190.02
2023-04-16T01:17:48.965Z,191.37
2023-04-16T01:18:48.900Z,192.56
2023-04-16T01:19:48.926Z,193.71
2023-04-16T01:20:48.985Z,194.76
2023-04-16T01:21:49.077Z,196.63
2023-04-16T01:22:49.098Z,199.16
2023-04-16T01:23:49.136Z,201.62
2023-04-16T01:24:49.195Z,202.41
2023-04-16T01:25:49.232Z,203.20
2023-04-16T01:26:49.304Z,203.76
2023-04-16T01:27:49.300Z,205.15
2023-04-16T01:28:49.349Z,206.14
2023-04-16T01:29:49.395Z,206.99
2023-04-16T01:30:49.483Z,206.48
2023-04-16T01:31:49.577Z,207.92
2023-04-16T01:32:49.606Z,208.37
2023-04-16T01:33:49.599Z,209.93
2023-04-16T01:34:49.660Z,208.53
2023-04-16T01:35:49.667Z,209.21
2023-04-16T01:36:49.731Z,210.92
2023-04-16T01:37:49.766Z,211.31
2023-04-16T01:38:49.801Z,210.64
2023-04-16T01:39:49.878Z,210.76
2023-04-16T01:40:49.839Z,210.15
2023-04-16T01:41:49.901Z,208.77
2023-04-16T01:42:49.953Z,207.17
2023-04-16T01:43:50.117Z,207.11
2023-04-16T01:44:50.159Z,207.90
2023-04-16T01:45:50.085Z,207.59
2023-04-16T01:46:50.688Z,207.52
2023-04-16T01:47:51.023Z,207.88
2023-04-16T01:48:50.166Z,207.98
2023-04-16T01:49:50.133Z,208.56
2023-04-16T01:50:50.168Z,208.02
2023-04-16T01:51:50.220Z,208.44
2023-04-16T01:52:50.323Z,207.81
2023-04-16T01:53:50.294Z,208.56
2023-04-16T01:54:50.375Z,207.60
2023-04-16T01:55:50.340Z,208.10
2023-04-16T01:56:50.390Z,208.47
2023-04-16T01:57:50.397Z,210.60
2023-04-16T01:58:50.451Z,208.19
2023-04-16T01:59:50.474Z,209.50
2023-04-16T02:00:50.509Z,209.81
2023-04-16T02:01:50.631Z,208.93
2023-04-16T02:02:50.671Z,208.47
2023-04-16T02:03:50.726Z,209.92
2023-04-16T02:04:50.663Z,209.65
2023-04-16T02:05:50.708Z,207.74
2023-04-16T02:06:50.751Z,208.85
2023-04-16T02:07:50.790Z,209.41
2023-04-16T02:08:50.812Z,209.84
2023-04-16T02:09:50.838Z,211.01
2023-04-16T02:10:50.893Z,210.24
2023-04-16T02:11:50.932Z,211.17
2023-04-16T02:12:50.982Z,210.94
2023-04-16T02:13:50.988Z,211.40
2023-04-16T02:14:51.028Z,211.23
2023-04-16T02:15:51.060Z,211.35
2023-04-16T02:16:51.114Z,212.09
2023-04-16T02:17:51.178Z,212.48
2023-04-16T02:18:51.101Z,211.98
2023-04-16T02:19:51.139Z,211.70
2023-04-16T02:20:51.176Z,211.33
2023-04-16T02:21:51.205Z,212.32
2023-04-16T02:22:51.255Z,210.99
2023-04-16T02:23:51.290Z,212.46
2023-04-16T02:24:51.317Z,210.31
2023-04-16T02:25:51.343Z,213.01
2023-04-16T02:26:51.334Z,212.27
2023-04-16T02:27:51.377Z,212.16
2023-04-16T02:28:51.359Z,208.43
2023-04-16T02:29:51.396Z,211.04
2023-04-16T02:30:51.433Z,210.57
2023-04-16T02:31:51.508Z,209.60
2023-04-16T02:32:51.593Z,209.99
2023-04-16T02:33:51.605Z,209.43
2023-04-16T02:34:51.638Z,209.08
2023-04-16T02:35:51.680Z,208.45
2023-04-16T02:36:51.749Z,210.05
2023-04-16T02:37:51.786Z,210.88
2023-04-16T02:38:51.903Z,209.84
2023-04-16T02:39:51.886Z,208.97
2023-04-16T02:40:51.929Z,210.13
2023-04-16T02:41:51.961Z,208.65
2023-04-16T02:42:52.008Z,210.60
2023-04-16T02:43:52.001Z,210.70
2023-04-16T02:44:52.001Z,210.76
2023-04-16T02:45:52.024Z,210.63
2023-04-16T02:46:51.969Z,210.01
2023-04-16T02:47:51.996Z,209.85
2023-04-16T02:48:51.969Z,211.34
2023-04-16T02:49:51.940Z,210.03
2023-04-16T02:50:51.937Z,209.26
2023-04-16T02:51:51.940Z,211.21
2023-04-16T02:52:51.912Z,211.17
2023-04-16T02:53:51.919Z,208.91
2023-04-16T02:54:51.956Z,211.70
2023-04-16T02:55:52.013Z,210.16
2023-04-16T02:56:52.049Z,209.29
2023-04-16T02:57:52.121Z,208.93
2023-04-16T02:58:52.151Z,209.84
2023-04-16T02:59:52.206Z,210.81
2023-04-16T03:00:52.241Z,208.58
2023-04-16T03:01:52.362Z,210.09
2023-04-16T03:02:52.385Z,210.34
2023-04-16T03:03:52.326Z,209.58
2023-04-16T03:04:52.360Z,208.46
2023-04-16T03:05:52.411Z,210.74
2023-04-16T03:06:52.442Z,209.38
2023-04-16T03:07:52.447Z,207.96
2023-04-16T03:08:52.478Z,205.48
2023-04-16T03:09:52.533Z,206.33
2023-04-16T03:10:52.531Z,204.99
2023-04-16T03:11:52.557Z,206.73
2023-04-16T03:12:52.594Z,204.38
2023-04-16T03:13:52.694Z,204.99
2023-04-16T03:14:52.714Z,202.87
2023-04-16T03:15:52.766Z,202.67
2023-04-16T03:16:52.767Z,203.38
2023-04-16T03:17:52.807Z,203.32
2023-04-16T03:18:52.837Z,202.49
2023-04-16T03:19:52.842Z,202.37
2023-04-16T03:20:52.865Z,202.31
2023-04-16T03:21:52.881Z,203.15
2023-04-16T03:22:52.914Z,201.30
2023-04-16T03:23:52.952Z,200.89
2023-04-16T03:24:52.984Z,200.26
2023-04-16T03:25:52.992Z,200.09
2023-04-16T03:26:52.983Z,199.40
2023-04-16T03:27:53.005Z,199.08
2023-04-16T03:28:53.025Z,199.55
2023-04-16T03:29:53.054Z,198.48
2023-04-16T03:30:53.164Z,198.52
2023-04-16T03:31:53.126Z,197.90
2023-04-16T03:32:53.188Z,198.28
2023-04-16T03:33:53.232Z,199.32
2023-04-16T03:34:53.278Z,200.10
2023-04-16T03:35:53.322Z,198.73
2023-04-16T03:36:53.376Z,200.93
2023-04-16T03:37:53.445Z,198.79
2023-04-16T03:38:53.490Z,197.82
2023-04-16T03:39:53.554Z,199.82
2023-04-16T03:40:53.582Z,198.64
2023-04-16T03:41:53.634Z,197.23
2023-04-16T03:42:53.635Z,196.19
2023-04-16T03:43:53.685Z,197.62
2023-04-16T03:44:53.735Z,197.32
2023-04-16T03:45:53.784Z,197.88
2023-04-16T03:46:53.902Z,197.11
2023-04-16T03:47:53.884Z,197.61
2023-04-16T03:48:53.885Z,196.48
2023-04-16T03:49:53.921Z,195.76
2023-04-16T03:50:53.993Z,195.76
2023-04-16T03:51:53.987Z,198.61
2023-04-16T03:52:54.004Z,197.35
2023-04-16T03:53:54.021Z,197.06
2023-04-16T03:54:54.057Z,195.63
2023-04-16T03:55:54.097Z,195.87
2023-04-16T03:56:54.114Z,194.14
2023-04-16T03:57:54.116Z,194.54
2023-04-16T03:58:54.147Z,195.02
2023-04-16T03:59:54.150Z,194.05
2023-04-16T04:00:54.172Z,194.07
2023-04-16T04:01:54.255Z,194.10
2023-04-16T04:02:54.344Z,193.21
2023-04-16T04:03:54.388Z,192.71
2023-04-16T04:04:54.289Z,192.55
2023-04-16T04:05:54.274Z,191.89
2023-04-16T04:06:54.357Z,189.24
2023-04-16T04:07:54.352Z,191.65
2023-04-16T04:08:54.739Z,191.84
2023-04-16T04:09:54.440Z,190.59
2023-04-16T04:10:54.514Z,192.18
2023-04-16T04:11:54.527Z,191.90
2023-04-16T04:12:54.548Z,190.20
2023-04-16T04:13:54.573Z,192.03
2023-04-16T04:14:54.598Z,191.40
2023-04-16T04:15:54.717Z,190.88
2023-04-16T04:16:54.670Z,192.59
2023-04-16T04:17:54.703Z,192.39
2023-04-16T04:18:54.706Z,190.70
2023-04-16T04:20:55.690Z,190.09
2023-04-16T04:21:54.689Z,189.06
2023-04-16T04:22:54.685Z,169.91
2023-04-16T04:23:56.042Z,138.86
2023-04-16T04:24:54.672Z,118.87
2023-04-16T04:25:54.743Z,94.68
2023-04-16T04:26:54.676Z,74.61
2023-04-16T04:27:54.679Z,50.74
2023-04-16T04:28:54.672Z,34.44
2023-04-16T04:29:54.681Z,25.00
2023-04-16T04:30:54.676Z,24.32
2023-04-16T04:31:54.726Z,24.50
2023-04-16T04:32:54.766Z,23.78
2023-04-16T04:33:54.701Z,25.00
2023-04-16T04:34:54.684Z,26.81
2023-04-16T04:35:54.686Z,27.45
2023-04-16T04:36:54.687Z,31.61
2023-04-16T04:37:54.693Z,38.36
2023-04-16T04:38:54.711Z,44.91
2023-04-16T04:39:54.715Z,49.12
2023-04-16T04:40:54.710Z,52.49
2023-04-16T04:41:54.698Z,56.51
2023-04-16T04:42:54.692Z,61.34
2023-04-16T04:43:54.705Z,64.68
2023-04-16T04:44:54.696Z,66.75
2023-04-16T04:45:54.763Z,72.70
2023-04-16T04:46:54.703Z,77.24
2023-04-16T04:47:54.769Z,82.41
2023-04-16T04:48:54.704Z,86.78
2023-04-16T04:49:54.697Z,89.43
2023-04-16T04:50:54.696Z,91.26
2023-04-16T04:51:54.694Z,94.50
2023-04-16T04:52:54.699Z,97.55
2023-04-16T04:53:54.737Z,101.96
2023-04-16T04:54:54.680Z,104.61
2023-04-16T04:55:57.595Z,105.41
2023-04-16T04:56:55.672Z,105.48
2023-04-16T04:57:54.672Z,106.17
2023-04-16T04:58:54.676Z,107.33
2023-04-16T04:59:54.690Z,110.50
2023-04-16T05:00:54.704Z,115.11
2023-04-16T05:01:54.687Z,119.27
2023-04-16T05:02:54.740Z,120.37
2023-04-16T05:03:54.733Z,120.29
2023-04-16T05:04:54.662Z,119.60
2023-04-16T05:05:54.650Z,107.70
2023-04-16T05:06:54.629Z,98.50
2023-04-16T05:07:54.634Z,79.80
2023-04-16T05:08:54.633Z,66.85
2023-04-16T05:09:54.685Z,50.60
2023-04-16T05:10:54.631Z,39.55
2023-04-16T05:11:54.620Z,30.71
2023-04-16T05:12:54.612Z,23.38
2023-04-16T05:13:54.630Z,25.25
2023-04-16T05:14:54.623Z,24.67
2023-04-16T05:15:54.629Z,25.85
2023-04-16T05:16:54.661Z,24.30
2023-04-16T05:17:54.689Z,25.00
2023-04-16T05:18:54.653Z,24.62
2023-04-16T05:19:54.609Z,25.67
2023-04-16T05:20:54.607Z,25.00
2023-04-16T05:21:54.624Z,25.12
2023-04-16T05:22:54.612Z,25.70
2023-04-16T05:23:54.626Z,25.00
2023-04-16T05:24:54.656Z,24.69
2023-04-16T05:25:54.709Z,25.00
2023-04-16T05:26:54.757Z,25.89
2023-04-16T05:27:54.832Z,24.79
2023-04-16T05:28:54.827Z,25.00
2023-04-16T05:29:54.879Z,26.89
2023-04-16T05:30:54.961Z,26.20
2023-04-16T05:31:54.996Z,25.11
2023-04-16T05:32:55.084Z,25.10
2023-04-16T05:33:55.114Z,25.36
2023-04-16T05:34:55.269Z,25.29
2023-04-16T05:35:55.172Z,25.71
2023-04-16T05:36:55.227Z,26.39
2023-04-16T05:37:55.280Z,26.22
2023-04-16T05:38:55.348Z,25.00
2023-04-16T05:39:55.416Z,26.40
2023-04-16T05:40:55.453Z,25.00
2023-04-16T05:41:55.509Z,25.39
2023-04-16T05:42:55.565Z,25.65
2023-04-16T05:43:55.612Z,26.24
2023-04-16T05:44:55.681Z,27.67
2023-04-16T05:45:55.776Z,29.73
2023-04-16T05:46:55.783Z,33.50
2023-04-16T05:47:55.846Z,40.97
2023-04-16T05:48:55.875Z,45.49
2023-04-16T05:49:55.936Z,49.39
2023-04-16T05:50:55.944Z,53.38
2023-04-16T05:51:56.038Z,59.46
2023-04-16T05:52:56.022Z,64.87
2023-04-16T05:53:56.058Z,68.07
2023-04-16T05:54:56.091Z,71.79
2023-04-16T05:55:56.130Z,76.72
2023-04-16T05:56:56.146Z,81.76
2023-04-16T05:57:56.167Z,85.36
2023-04-16T05:58:56.218Z,91.15
2023-04-16T05:59:56.279Z,93.50
2023-04-16T06:00:56.245Z,98.13
2023-04-16T06:01:56.279Z,103.94
2023-04-16T06:02:56.435Z,108.66
2023-04-16T06:03:56.356Z,112.12
2023-04-16T06:04:56.314Z,114.71
2023-04-16T06:05:56.570Z,118.28
2023-04-16T06:06:56.334Z,122.01
2023-04-16T06:07:56.348Z,125.17
2023-04-16T06:08:56.372Z,130.14
2023-04-16T06:09:56.383Z,133.61
2023-04-16T06:10:56.424Z,136.69
2023-04-16T06:11:56.401Z,138.53
2023-04-16T06:12:56.429Z,141.81
2023-04-16T06:13:56.433Z,144.14
2023-04-16T06:14:56.446Z,144.66
2023-04-16T06:15:56.499Z,148.74
2023-04-16T06:16:56.465Z,149.37
2023-04-16T06:17:57.219Z,152.24
2023-04-16T06:18:56.499Z,154.03
2023-04-16T06:19:56.515Z,156.10
2023-04-16T06:20:56.532Z,157.98
2023-04-16T06:21:56.527Z,159.84
2023-04-16T06:22:56.544Z,161.81
2023-04-16T06:23:56.562Z,163.36
2023-04-16T06:24:56.580Z,166.69
2023-04-16T06:25:56.579Z,166.45
2023-04-16T06:26:56.586Z,168.32
2023-04-16T06:27:56.592Z,169.02
2023-04-16T06:28:56.605Z,170.97
2023-04-16T06:29:56.610Z,172.86
2023-04-16T06:30:56.615Z,174.47
2023-04-16T06:31:56.673Z,175.56
2023-04-16T06:32:56.655Z,177.58
2023-04-16T06:33:56.642Z,179.17
2023-04-16T06:34:56.654Z,179.11
2023-04-16T06:35:56.648Z,182.89
2023-04-16T06:36:56.648Z,183.34
2023-04-16T06:37:56.657Z,183.56
2023-04-16T06:38:56.699Z,186.02
2023-04-16T06:39:56.696Z,186.63
2023-04-16T06:40:56.689Z,187.89
2023-04-16T06:41:56.670Z,189.08
2023-04-16T06:42:56.664Z,190.17
2023-04-16T06:43:56.681Z,191.00
2023-04-16T06:44:56.678Z,192.30
2023-04-16T06:45:56.687Z,193.23
2023-04-16T06:46:56.712Z,193.84
2023-04-16T06:47:56.706Z,194.62
2023-04-16T06:48:56.674Z,194.72
2023-04-16T06:49:56.676Z,194.90
2023-04-16T06:50:56.682Z,195.55
2023-04-16T06:51:56.679Z,197.05
2023-04-16T06:52:56.680Z,200.09
2023-04-16T06:53:56.676Z,199.85
2023-04-16T06:54:56.818Z,200.83
2023-04-16T06:55:56.654Z,201.08
2023-04-16T06:56:56.651Z,201.37
2023-04-16T06:57:56.653Z,201.86
2023-04-16T06:58:56.656Z,203.55
2023-04-16T06:59:56.649Z,203.16
2023-04-16T07:00:56.694Z,203.81
2023-04-16T07:01:56.676Z,204.10
2023-04-16T07:02:58.651Z,205.41
2023-04-16T07:03:56.819Z,206.30
2023-04-16T07:04:56.616Z,206.67
2023-04-16T07:05:56.608Z,207.14
2023-04-16T07:06:56.599Z,207.03
2023-04-16T07:07:56.599Z,208.29
2023-04-16T07:08:56.606Z,208.28
2023-04-16T07:09:56.592Z,208.95
2023-04-16T07:10:56.580Z,209.59
2023-04-16T07:11:56.576Z,210.11
2023-04-16T07:12:56.580Z,210.54
2023-04-16T07:13:56.562Z,210.61
2023-04-16T07:14:56.590Z,210.63
2023-04-16T07:15:56.582Z,211.29
2023-04-16T07:16:56.608Z,211.69
2023-04-16T07:17:56.608Z,213.64
2023-04-16T07:18:56.552Z,214.14
2023-04-16T07:19:56.540Z,213.90
2023-04-16T07:20:56.590Z,205.37
2023-04-16T07:21:56.530Z,188.32
2023-04-16T07:22:56.535Z,173.96
2023-04-16T07:23:56.536Z,167.03
2023-04-16T07:24:56.534Z,156.76
2023-04-16T07:25:56.528Z,148.16
2023-04-16T07:26:56.505Z,139.85
2023-04-16T07:27:56.488Z,131.97
2023-04-16T07:28:56.482Z,123.93
2023-04-16T07:29:56.490Z,119.91
2023-04-16T07:30:56.510Z,115.76
2023-04-16T07:31:56.515Z,108.07
2023-04-16T07:32:56.587Z,104.11
2023-04-16T07:33:56.477Z,99.37
2023-04-16T07:34:56.467Z,94.01
2023-04-16T07:35:56.473Z,89.43
2023-04-16T07:36:56.501Z,83.90
2023-04-16T07:37:56.466Z,78.48
2023-04-16T07:38:56.481Z,74.30
2023-04-16T07:39:57.472Z,72.70
2023-04-16T07:40:56.485Z,71.20
2023-04-16T07:41:56.468Z,74.09
2023-04-16T07:42:56.483Z,80.12
2023-04-16T07:43:56.473Z,84.58
2023-04-16T07:44:56.474Z,86.68
2023-04-16T07:45:56.495Z,90.68
2023-04-16T07:46:56.545Z,95.49
2023-04-16T07:47:56.615Z,100.83
2023-04-16T07:48:56.501Z,103.72
2023-04-16T07:49:56.483Z,103.91
2023-04-16T07:50:56.500Z,104.90
2023-04-16T07:51:56.486Z,107.73
2023-04-16T07:52:56.489Z,113.75
2023-04-16T07:53:56.487Z,122.74
2023-04-16T07:54:56.470Z,125.92
2023-04-16T07:55:56.488Z,129.13
2023-04-16T07:56:56.483Z,132.79
2023-04-16T07:57:56.461Z,136.59
2023-04-16T07:58:56.778Z,140.20
2023-04-16T07:59:56.436Z,142.28
2023-04-16T08:00:56.443Z,146.75
2023-04-16T08:01:56.499Z,148.37
2023-04-16T08:02:56.539Z,150.98
2023-04-16T08:03:56.564Z,153.18
2023-04-16T08:04:56.499Z,155.34
2023-04-16T08:05:56.406Z,159.00
2023-04-16T08:06:56.440Z,159.93
2023-04-16T08:07:56.379Z,161.91
2023-04-16T08:08:56.376Z,163.51
2023-04-16T08:09:56.375Z,165.28
2023-04-16T08:10:56.376Z,165.28
2023-04-16T08:11:56.372Z,161.55
2023-04-16T08:12:56.353Z,152.63
2023-04-16T08:13:56.351Z,138.32
2023-04-16T08:14:56.347Z,132.23
2023-04-16T08:15:56.371Z,121.89
2023-04-16T08:16:56.352Z,116.56
2023-04-16T08:17:56.380Z,112.54
2023-04-16T08:18:56.339Z,106.85
2023-04-16T08:19:56.328Z,100.46
2023-04-16T08:20:56.329Z,92.89
2023-04-16T08:21:56.330Z,89.79
2023-04-16T08:22:56.339Z,82.98
2023-04-16T08:23:56.331Z,79.35
2023-04-16T08:24:56.313Z,76.08
2023-04-16T08:25:56.309Z,70.13
2023-04-16T08:27:02.455Z,69.40
2023-04-16T08:27:57.305Z,67.29
2023-04-16T08:28:56.300Z,63.49
2023-04-16T08:29:56.310Z,59.67
2023-04-16T08:30:56.332Z,56.35
2023-04-16T08:31:56.351Z,52.39
2023-04-16T08:32:56.378Z,47.30
2023-04-16T08:33:56.331Z,46.85
2023-04-16T08:34:56.330Z,42.16
2023-04-16T08:35:56.324Z,42.26
2023-04-16T08:36:56.319Z,40.52
2023-04-16T08:37:56.300Z,40.44
2023-04-16T08:38:56.322Z,42.46
2023-04-16T08:39:56.356Z,42.56
2023-04-16T08:40:56.304Z,44.23
2023-04-16T08:41:56.296Z,48.18
2023-04-16T08:42:56.297Z,55.92
2023-04-16T08:43:56.291Z,67.04
2023-04-16T08:44:56.280Z,43.46
2023-04-16T08:45:56.293Z,47.09
2023-04-16T08:46:56.296Z,54.79
2023-04-16T08:47:56.293Z,67.53
2023-04-16T08:48:56.265Z,85.24
2023-04-16T08:49:57.885Z,91.68
2023-04-16T08:50:56.245Z,96.47
2023-04-16T08:51:56.237Z,100.06
2023-04-16T08:52:56.243Z,100.22
2023-04-16T08:53:56.228Z,101.43
2023-04-16T08:54:56.210Z,104.47
2023-04-16T08:55:56.209Z,109.92
2023-04-16T08:56:56.216Z,121.51
2023-04-16T08:57:56.225Z,124.66
2023-04-16T08:58:56.191Z,128.30
2023-04-16T08:59:56.165Z,131.52
2023-04-16T09:00:56.163Z,135.48
2023-04-16T09:01:56.252Z,139.92
2023-04-16T09:02:56.421Z,142.05
2023-04-16T09:03:56.296Z,144.47
2023-04-16T09:04:56.211Z,147.05
2023-04-16T09:05:56.093Z,149.53
2023-04-16T09:06:56.099Z,153.45
2023-04-16T09:07:56.084Z,156.29
2023-04-16T09:08:56.065Z,158.25
2023-04-16T09:09:56.121Z,163.85
2023-04-16T09:10:56.175Z,165.23
2023-04-16T09:11:56.309Z,168.70
2023-04-16T09:12:56.267Z,171.71
2023-04-16T09:13:56.309Z,174.62
2023-04-16T09:14:56.361Z,178.20
2023-04-16T09:15:56.423Z,179.30
2023-04-16T09:16:56.482Z,182.82
2023-04-16T09:17:56.587Z,186.01
2023-04-16T09:18:56.538Z,189.13
2023-04-16T09:19:56.575Z,191.63
2023-04-16T09:20:56.615Z,193.33
2023-04-16T09:21:56.651Z,196.31
2023-04-16T09:22:56.712Z,198.60
2023-04-16T09:23:56.736Z,201.22
2023-04-16T09:24:56.778Z,203.24
2023-04-16T09:25:56.807Z,204.76
2023-04-16T09:26:56.858Z,206.66
2023-04-16T09:27:56.903Z,211.24
2023-04-16T09:28:56.915Z,212.38
2023-04-16T09:29:56.936Z,214.57
2023-04-16T09:30:56.974Z,216.83
2023-04-16T09:31:57.042Z,219.16
2023-04-16T09:32:57.086Z,220.28
2023-04-16T09:33:57.073Z,222.98
2023-04-16T09:34:57.139Z,222.75
2023-04-16T09:35:57.121Z,224.42
2023-04-16T09:36:57.171Z,226.72
2023-04-16T09:37:57.237Z,227.52
2023-04-16T09:38:57.839Z,227.26
2023-04-16T09:39:57.252Z,229.60
2023-04-16T09:40:57.279Z,230.75
2023-04-16T09:41:57.327Z,231.76
2023-04-16T09:42:57.338Z,233.43
2023-04-16T09:43:57.370Z,233.92
2023-04-16T09:45:00.301Z,233.18
2023-04-16T09:45:57.420Z,233.28
2023-04-16T09:46:57.371Z,233.65
2023-04-16T09:47:57.362Z,234.22
2023-04-16T09:48:57.336Z,236.39
2023-04-16T09:49:57.306Z,235.75
2023-04-16T09:50:57.294Z,238.67
2023-04-16T09:51:57.274Z,239.53
2023-04-16T09:52:57.271Z,240.97
2023-04-16T09:53:57.239Z,241.57
2023-04-16T09:54:57.213Z,238.37
2023-04-16T09:55:57.206Z,238.49
2023-04-16T09:56:57.180Z,239.10
2023-04-16T09:57:57.156Z,240.40
2023-04-16T09:58:57.129Z,240.88
2023-04-16T09:59:57.125Z,245.51
2023-04-16T10:00:57.138Z,245.17
2023-04-16T10:02:12.264Z,244.20
2023-04-16T10:02:58.125Z,244.33
2023-04-16T10:03:57.092Z,244.50
2023-04-16T10:04:57.052Z,244.56
2023-04-16T10:05:57.022Z,246.44
2023-04-16T10:06:56.995Z,244.45
2023-04-16T10:07:56.961Z,249.40
2023-04-16T10:08:56.971Z,247.98
2023-04-16T10:09:56.915Z,249.17
2023-04-16T10:10:56.900Z,246.04
2023-04-16T10:11:56.861Z,245.82
2023-04-16T10:12:56.837Z,248.88
2023-04-16T10:13:56.832Z,248.89
2023-04-16T10:14:56.800Z,247.81
2023-04-16T10:15:56.772Z,249.10
2023-04-16T10:16:56.864Z,246.78
2023-04-16T10:17:56.841Z,249.19
2023-04-16T10:18:56.718Z,248.53
2023-04-16T10:19:56.687Z,248.37
2023-04-16T10:20:56.674Z,248.48
2023-04-16T10:21:56.669Z,248.52
2023-04-16T10:22:56.639Z,248.83
2023-04-16T10:23:56.630Z,250.33
2023-04-16T10:24:56.603Z,251.78
2023-04-16T10:25:57.606Z,248.12
2023-04-16T10:26:56.582Z,250.10
2023-04-16T10:27:56.539Z,247.77
2023-04-16T10:28:56.523Z,247.59
2023-04-16T10:29:56.490Z,247.87
2023-04-16T10:30:56.522Z,246.86
2023-04-16T10:31:56.447Z,249.57
2023-04-16T10:32:58.288Z,250.00
2023-04-16T10:33:56.397Z,249.77
2023-04-16T10:34:56.393Z,248.57
2023-04-16T10:36:07.122Z,250.60
2023-04-16T10:36:57.341Z,250.14
2023-04-16T10:37:56.319Z,250.75
2023-04-16T10:38:56.292Z,251.61
2023-04-16T10:39:56.260Z,251.03
2023-04-16T10:40:56.242Z,253.43
2023-04-16T10:41:56.239Z,250.49
2023-04-16T10:42:56.210Z,250.56
2023-04-16T10:43:56.177Z,250.91
2023-04-16T10:44:56.164Z,249.75
2023-04-16T10:45:56.186Z,250.70
2023-04-16T10:46:56.133Z,250.50
2023-04-16T10:47:56.159Z,247.58
2023-04-16T10:48:56.094Z,249.27
2023-04-16T10:49:56.065Z,249.44
2023-04-16T10:50:56.028Z,246.75
2023-04-16T10:51:56.006Z,247.72
2023-04-16T10:52:56.000Z,248.32
2023-04-16T10:53:55.956Z,247.26
2023-04-16T10:54:55.936Z,246.82
2023-04-16T10:55:55.908Z,247.01
2023-04-16T10:56:55.911Z,246.07
2023-04-16T10:57:55.875Z,248.77
2023-04-16T10:58:55.862Z,246.35
2023-04-16T10:59:55.845Z,247.00
2023-04-16T11:00:55.869Z,248.96
2023-04-16T11:01:56.030Z,245.60
2023-04-16T11:02:55.964Z,246.44
2023-04-16T11:03:56.049Z,245.57
2023-04-16T11:04:55.993Z,245.65
2023-04-16T11:05:55.934Z,245.41
2023-04-16T11:06:55.947Z,245.20
2023-04-16T11:07:55.959Z,243.69
2023-04-16T11:08:55.962Z,245.02
2023-04-16T11:09:56.047Z,243.54
2023-04-16T11:10:56.000Z,245.93
2023-04-16T11:11:56.031Z,244.15
2023-04-16T11:12:56.049Z,241.33
2023-04-16T11:13:56.046Z,242.26
2023-04-16T11:14:56.066Z,238.04
2023-04-16T11:15:56.125Z,241.24
2023-04-16T11:16:56.146Z,240.76
2023-04-16T11:17:56.147Z,239.56
2023-04-16T11:18:56.862Z,237.17
2023-04-16T11:19:56.154Z,236.05
2023-04-16T11:20:56.172Z,236.47
2023-04-16T11:21:56.325Z,233.21
2023-04-16T11:22:56.191Z,231.50
2023-04-16T11:23:56.198Z,231.56
2023-04-16T11:24:56.250Z,230.12
2023-04-16T11:25:56.248Z,229.66
2023-04-16T11:26:56.239Z,230.21
2023-04-16T11:27:56.276Z,232.17
2023-04-16T11:28:56.302Z,229.85
2023-04-16T11:29:56.251Z,230.04
2023-04-16T11:30:56.247Z,230.48
2023-04-16T11:31:56.208Z,231.50
2023-04-16T11:32:56.288Z,232.44
2023-04-16T11:33:56.170Z,232.85
2023-04-16T11:34:56.146Z,234.40
2023-04-16T11:35:56.140Z,234.57
2023-04-16T11:36:56.103Z,235.26
2023-04-16T11:37:56.117Z,234.41
2023-04-16T11:38:56.109Z,236.38
2023-04-16T11:39:56.061Z,236.53
2023-04-16T11:40:56.047Z,234.83
2023-04-16T11:41:56.104Z,236.59
2023-04-16T11:42:56.848Z,237.77
2023-04-16T11:43:55.999Z,239.15
2023-04-16T11:44:55.987Z,238.64
2023-04-16T11:45:55.981Z,239.48
2023-04-16T11:46:55.966Z,239.59
2023-04-16T11:47:56.002Z,239.81
2023-04-16T11:49:07.380Z,239.84
2023-04-16T11:49:56.908Z,239.61
2023-04-16T11:50:55.886Z,239.86
2023-04-16T11:51:55.862Z,240.97
2023-04-16T11:52:55.852Z,243.32
2023-04-16T11:53:55.840Z,242.92
2023-04-16T11:54:55.810Z,242.78
2023-04-16T11:55:55.809Z,244.30
2023-04-16T11:56:55.776Z,243.92
2023-04-16T11:57:55.749Z,244.69
2023-04-16T11:58:55.737Z,245.54
2023-04-16T12:00:02.532Z,244.66
2023-04-16T12:00:56.691Z,244.75
2023-04-16T12:01:55.870Z,245.24
2023-04-16T12:02:55.999Z,245.04
2023-04-16T12:03:55.901Z,247.58
2023-04-16T12:04:55.717Z,249.19
2023-04-16T12:05:55.586Z,248.82
2023-04-16T12:06:55.561Z,248.02
2023-04-16T12:07:55.944Z,248.60
2023-04-16T12:08:55.527Z,247.56
2023-04-16T12:09:55.530Z,248.26
2023-04-16T12:10:55.549Z,247.26
2023-04-16T12:11:55.478Z,249.36
2023-04-16T12:12:55.511Z,248.04
2023-04-16T12:13:55.434Z,246.81
2023-04-16T12:14:55.444Z,247.32
2023-04-16T12:15:55.404Z,248.30
2023-04-16T12:16:55.434Z,248.95
2023-04-16T12:17:55.424Z,248.41
2023-04-16T12:18:55.422Z,246.93
2023-04-16T12:19:55.431Z,246.92
2023-04-16T12:20:55.448Z,247.02
2023-04-16T12:21:55.409Z,247.46
2023-04-16T12:22:55.398Z,247.73
2023-04-16T12:23:55.373Z,248.47
2023-04-16T12:24:55.339Z,247.81
2023-04-16T12:25:55.331Z,248.61
2023-04-16T12:26:55.391Z,248.60
2023-04-16T12:27:55.359Z,248.55
2023-04-16T12:28:55.293Z,247.35
2023-04-16T12:29:55.306Z,246.62
2023-04-16T12:30:55.323Z,248.02
2023-04-16T12:31:55.307Z,246.40
2023-04-16T12:32:57.264Z,246.91
2023-04-16T12:33:55.196Z,250.00